createdAt,value
2022-09-29T00:00:46.027Z,6.2
2022-09-29T00:01:46.083Z,6.2
2022-09-29T00:02:46.085Z,6.2
2022-09-29T00:03:46.033Z,6.2
2022-09-29T00:04:46.034Z,6.2
2022-09-29T00:05:46.029Z,6.2
2022-09-29T00:06:46.031Z,6.2
2022-09-29T00:08:46.027Z,6.1
2022-09-29T00:09:46.031Z,6.2
2022-09-29T00:10:46.037Z,6.2
2022-09-29T00:11:46.030Z,6.2
2022-09-29T00:12:46.041Z,6.2
2022-09-29T00:13:46.028Z,6.2
2022-09-29T00:14:48.000Z,6.1
2022-09-29T00:15:46.029Z,6.1
2022-09-29T00:18:09.375Z,6.1
2022-09-29T00:18:46.035Z,6.1
2022-09-29T00:19:46.094Z,6.1
2022-09-29T00:20:46.030Z,6.1
2022-09-29T00:21:46.041Z,6.1
2022-09-29T00:22:46.037Z,6
2022-09-29T00:23:46.032Z,6
2022-09-29T00:24:46.032Z,6
2022-09-29T00:25:46.029Z,6
2022-09-29T00:27:46.042Z,6
2022-09-29T00:28:46.041Z,6
2022-09-29T00:29:46.038Z,6
2022-09-29T00:30:46.035Z,6
2022-09-29T00:31:46.120Z,6
2022-09-29T00:32:46.072Z,6
2022-09-29T00:33:46.041Z,6
2022-09-29T00:34:46.041Z,6
2022-09-29T00:35:46.050Z,5.9
2022-09-29T00:36:46.032Z,5.9
2022-09-29T00:38:46.045Z,5.9
2022-09-29T00:39:46.044Z,5.9
2022-09-29T00:40:46.106Z,5.9
2022-09-29T00:41:46.034Z,5.9
2022-09-29T00:42:46.033Z,5.8
2022-09-29T00:43:46.039Z,5.8
2022-09-29T00:44:46.032Z,5.8
2022-09-29T00:46:46.045Z,5.8
2022-09-29T00:47:46.047Z,5.8
2022-09-29T00:51:46.038Z,5.8
2022-09-29T00:52:46.045Z,5.8
2022-09-29T00:53:46.036Z,5.8
2022-09-29T00:54:46.047Z,5.8
2022-09-29T00:55:46.045Z,5.8
2022-09-29T00:56:46.043Z,5.8
2022-09-29T00:57:46.048Z,5.8
2022-09-29T00:58:46.044Z,5.8
2022-09-29T00:59:46.051Z,5.8
2022-09-29T01:00:46.141Z,5.8
2022-09-29T01:01:46.113Z,5.7
2022-09-29T01:03:46.079Z,5.7
2022-09-29T01:04:46.041Z,5.7
2022-09-29T01:05:46.049Z,5.7
2022-09-29T01:06:46.040Z,5.7
2022-09-29T01:07:46.052Z,5.6
2022-09-29T01:08:46.043Z,5.6
2022-09-29T01:10:46.090Z,5.7
2022-09-29T01:11:46.048Z,5.7
2022-09-29T01:12:46.058Z,5.7
2022-09-29T01:13:46.050Z,5.7
2022-09-29T01:14:46.037Z,5.7
2022-09-29T01:15:46.048Z,5.7
2022-09-29T01:17:46.057Z,5.6
2022-09-29T01:18:46.042Z,5.6
2022-09-29T01:19:46.050Z,5.6
2022-09-29T01:20:46.047Z,5.6
2022-09-29T01:21:46.046Z,5.6
2022-09-29T01:22:46.061Z,5.6
2022-09-29T01:23:46.045Z,5.6
2022-09-29T01:24:46.043Z,5.6
2022-09-29T01:25:46.054Z,5.6
2022-09-29T01:26:46.056Z,5.6
2022-09-29T01:27:46.056Z,5.6
2022-09-29T01:28:46.069Z,5.6
2022-09-29T01:29:46.043Z,5.6
2022-09-29T01:31:46.132Z,5.6
2022-09-29T01:33:46.058Z,5.6
2022-09-29T01:34:46.077Z,5.6
2022-09-29T01:35:46.049Z,5.6
2022-09-29T01:36:46.050Z,5.6
2022-09-29T01:37:46.050Z,5.5
2022-09-29T01:38:46.059Z,5.5
2022-09-29T01:39:46.054Z,5.5
2022-09-29T01:40:46.155Z,5.4
2022-09-29T01:42:46.058Z,5.4
2022-09-29T01:43:46.045Z,5.4
2022-09-29T01:44:46.048Z,5.4
2022-09-29T01:45:46.084Z,5.5
2022-09-29T01:46:46.052Z,5.5
2022-09-29T01:47:46.070Z,5.5
2022-09-29T01:48:46.061Z,5.4
2022-09-29T01:49:46.057Z,5.5
2022-09-29T01:50:46.060Z,5.4
2022-09-29T01:51:46.054Z,5.4
2022-09-29T01:52:46.065Z,5.4
2022-09-29T01:54:46.072Z,5.4
2022-09-29T01:55:46.054Z,5.4
2022-09-29T01:56:46.054Z,5.4
2022-09-29T01:57:46.063Z,5.4
2022-09-29T01:58:46.057Z,5.4
2022-09-29T01:59:46.077Z,5.4
2022-09-29T02:00:46.133Z,5.4
2022-09-29T02:01:46.152Z,5.4
2022-09-29T02:02:46.063Z,5.4
2022-09-29T02:03:46.070Z,5.4
2022-09-29T02:05:46.086Z,5.4
2022-09-29T02:06:46.062Z,5.3
2022-09-29T02:07:46.058Z,5.3
2022-09-29T02:08:46.058Z,5.3
2022-09-29T02:09:46.065Z,5.3
2022-09-29T02:10:46.057Z,5.3
2022-09-29T02:13:46.062Z,5.3
2022-09-29T02:14:46.067Z,5.3
2022-09-29T02:15:46.071Z,5.3
2022-09-29T02:16:46.063Z,5.3
2022-09-29T02:17:46.061Z,5.3
2022-09-29T02:18:46.079Z,5.3
2022-09-29T02:19:46.124Z,5.3
2022-09-29T02:20:46.075Z,5.3
2022-09-29T02:21:46.061Z,5.2
2022-09-29T02:22:46.068Z,5.2
2022-09-29T02:24:46.061Z,5.2
2022-09-29T02:26:46.064Z,5.2
2022-09-29T02:27:46.065Z,5.2
2022-09-29T02:28:46.058Z,5.2
2022-09-29T02:29:46.061Z,5.2
2022-09-29T02:30:46.066Z,5.2
2022-09-29T02:32:46.061Z,5.2
2022-09-29T02:33:46.067Z,5.2
2022-09-29T02:34:46.067Z,5.2
2022-09-29T02:36:46.091Z,5.2
2022-09-29T02:37:46.062Z,5.2
2022-09-29T02:38:46.060Z,5.1
2022-09-29T02:39:46.066Z,5.1
2022-09-29T02:40:46.092Z,5.2
2022-09-29T02:41:46.063Z,5.2
2022-09-29T02:42:46.063Z,5.1
2022-09-29T02:44:46.068Z,5.1
2022-09-29T02:45:46.086Z,5.1
2022-09-29T02:47:46.064Z,5.1
2022-09-29T02:48:46.069Z,5.1
2022-09-29T02:49:46.071Z,5.1
2022-09-29T02:50:46.077Z,5.1
2022-09-29T02:51:46.073Z,5.1
2022-09-29T02:53:46.073Z,5
2022-09-29T02:54:46.072Z,5
2022-09-29T02:55:46.070Z,5
2022-09-29T02:56:46.074Z,5
2022-09-29T02:57:46.076Z,5
2022-09-29T02:58:48.263Z,5
2022-09-29T02:59:46.145Z,5
2022-09-29T03:00:46.138Z,5
2022-09-29T03:01:46.082Z,5
2022-09-29T03:03:46.135Z,5
2022-09-29T03:04:46.139Z,5
2022-09-29T03:06:46.074Z,5
2022-09-29T03:07:46.097Z,5
2022-09-29T03:08:46.075Z,5
2022-09-29T03:09:46.070Z,4.9
2022-09-29T03:10:46.073Z,4.9
2022-09-29T03:11:46.076Z,4.9
2022-09-29T03:12:46.079Z,4.9
2022-09-29T03:14:46.077Z,4.9
2022-09-29T03:15:46.099Z,4.9
2022-09-29T03:16:46.088Z,4.9
2022-09-29T03:17:46.080Z,4.9
2022-09-29T03:18:46.075Z,4.9
2022-09-29T03:19:46.070Z,4.9
2022-09-29T03:20:46.080Z,4.9
2022-09-29T03:21:46.073Z,4.9
2022-09-29T03:22:46.086Z,4.9
2022-09-29T03:23:46.072Z,4.8
2022-09-29T03:24:46.075Z,4.8
2022-09-29T03:25:46.093Z,4.8
2022-09-29T03:26:46.088Z,4.8
2022-09-29T03:27:46.088Z,4.8
2022-09-29T03:28:46.081Z,4.8
2022-09-29T03:29:46.076Z,4.8
2022-09-29T03:30:46.079Z,4.8
2022-09-29T03:31:46.190Z,4.8
2022-09-29T03:32:46.077Z,4.8
2022-09-29T03:33:46.070Z,4.8
2022-09-29T03:34:46.073Z,4.8
2022-09-29T03:35:46.081Z,4.8
2022-09-29T03:37:46.082Z,4.8
2022-09-29T03:38:46.111Z,4.8
2022-09-29T03:39:46.077Z,4.7
2022-09-29T03:40:46.156Z,4.8
2022-09-29T03:41:46.072Z,4.7
2022-09-29T03:42:46.079Z,4.8
2022-09-29T03:43:46.082Z,4.7
2022-09-29T03:45:46.196Z,4.8
2022-09-29T03:46:46.081Z,4.7
2022-09-29T03:47:46.084Z,4.7
2022-09-29T03:48:46.081Z,4.7
2022-09-29T03:49:46.088Z,4.7
2022-09-29T03:50:46.085Z,4.7
2022-09-29T03:51:46.080Z,4.7
2022-09-29T03:52:46.077Z,4.7
2022-09-29T03:53:46.080Z,4.7
2022-09-29T03:54:46.079Z,4.7
2022-09-29T03:55:46.079Z,4.7
2022-09-29T03:56:46.076Z,4.7
2022-09-29T03:58:46.100Z,4.7
2022-09-29T03:59:46.105Z,4.7
2022-09-29T04:00:46.159Z,4.7
2022-09-29T04:01:46.164Z,4.7
2022-09-29T04:03:46.086Z,4.6
2022-09-29T04:04:46.084Z,4.6
2022-09-29T04:05:46.085Z,4.6
2022-09-29T04:06:46.092Z,4.6
2022-09-29T04:07:46.085Z,4.6
2022-09-29T04:08:46.093Z,4.6
2022-09-29T04:09:46.124Z,4.6
2022-09-29T04:11:46.081Z,4.6
2022-09-29T04:12:46.085Z,4.6
2022-09-29T04:13:46.079Z,4.6
2022-09-29T04:15:46.086Z,4.6
2022-09-29T04:17:46.092Z,4.6
2022-09-29T04:19:46.089Z,4.5
2022-09-29T04:20:46.086Z,4.5
2022-09-29T04:21:46.093Z,4.5
2022-09-29T04:22:46.116Z,4.5
2022-09-29T04:23:46.085Z,4.5
2022-09-29T04:24:46.087Z,4.5
2022-09-29T04:25:46.089Z,4.5
2022-09-29T04:26:46.092Z,4.5
2022-09-29T04:28:46.086Z,4.5
2022-09-29T04:29:46.092Z,4.5
2022-09-29T04:30:46.089Z,4.5
2022-09-29T04:33:46.092Z,4.5
2022-09-29T04:34:46.146Z,4.5
2022-09-29T04:35:46.097Z,4.5
2022-09-29T04:36:46.091Z,4.5
2022-09-29T04:37:46.096Z,4.5
2022-09-29T04:38:46.092Z,4.5
2022-09-29T04:39:46.091Z,4.5
2022-09-29T04:40:46.175Z,4.5
2022-09-29T04:41:46.111Z,4.4
2022-09-29T04:42:46.090Z,4.4
2022-09-29T04:44:46.100Z,4.4
2022-09-29T04:45:46.168Z,4.4
2022-09-29T04:46:46.102Z,4.4
2022-09-29T04:47:46.102Z,4.4
2022-09-29T04:48:46.099Z,4.4
2022-09-29T04:50:46.091Z,4.4
2022-09-29T04:51:46.098Z,4.4
2022-09-29T04:52:46.095Z,4.4
2022-09-29T04:54:46.108Z,4.3
2022-09-29T04:55:46.091Z,4.3
2022-09-29T04:56:46.096Z,4.3
2022-09-29T04:58:46.103Z,4.3
2022-09-29T04:59:46.102Z,4.3
2022-09-29T05:00:46.165Z,4.3
2022-09-29T05:01:46.131Z,4.3
2022-09-29T05:02:49.617Z,4.3
2022-09-29T05:04:46.097Z,4.3
2022-09-29T05:06:46.092Z,4.3
2022-09-29T05:07:46.096Z,4.4
2022-09-29T05:08:46.096Z,4.3
2022-09-29T05:09:46.095Z,4.3
2022-09-29T05:10:46.092Z,4.3
2022-09-29T05:11:46.130Z,4.3
2022-09-29T05:12:46.096Z,4.3
2022-09-29T05:13:46.094Z,4.3
2022-09-29T05:15:46.099Z,4.3
2022-09-29T05:16:46.172Z,4.3
2022-09-29T05:17:46.113Z,4.3
2022-09-29T05:18:46.112Z,4.3
2022-09-29T05:19:46.102Z,4.3
2022-09-29T05:21:04.930Z,4.3
2022-09-29T05:22:46.107Z,4.3
2022-09-29T05:23:46.101Z,4.3
2022-09-29T05:24:46.114Z,4.3
2022-09-29T05:25:46.103Z,4.3
2022-09-29T05:26:46.101Z,4.3
2022-09-29T05:27:46.105Z,4.3
2022-09-29T05:28:46.100Z,4.2
2022-09-29T05:29:46.099Z,4.2
2022-09-29T05:30:46.105Z,4.3
2022-09-29T05:31:46.161Z,4.3
2022-09-29T05:32:46.111Z,4.3
2022-09-29T05:33:46.105Z,4.3
2022-09-29T05:34:46.097Z,4.3
2022-09-29T05:36:46.105Z,4.3
2022-09-29T05:37:46.107Z,4.3
2022-09-29T05:38:46.126Z,4.3
2022-09-29T05:39:46.101Z,4.3
2022-09-29T05:40:46.136Z,4.3
2022-09-29T05:41:46.107Z,4.3
2022-09-29T05:42:46.169Z,4.3
2022-09-29T05:44:46.106Z,4.3
2022-09-29T05:45:46.168Z,4.3
2022-09-29T05:47:46.109Z,4.3
2022-09-29T05:48:46.108Z,4.3
2022-09-29T05:49:46.112Z,4.3
2022-09-29T05:50:46.109Z,4.3
2022-09-29T05:51:46.112Z,4.3
2022-09-29T05:52:46.110Z,4.3
2022-09-29T05:53:46.109Z,4.3
2022-09-29T05:54:46.103Z,4.3
2022-09-29T05:55:46.111Z,4.3
2022-09-29T05:57:46.118Z,4.4
2022-09-29T05:58:46.110Z,4.4
2022-09-29T05:59:46.110Z,4.4
2022-09-29T06:00:46.183Z,4.4
2022-09-29T06:01:46.157Z,4.4
2022-09-29T06:02:46.160Z,4.4
2022-09-29T06:03:46.109Z,4.4
2022-09-29T06:04:46.109Z,4.4
2022-09-29T06:05:46.117Z,4.4
2022-09-29T06:06:46.110Z,4.4
2022-09-29T06:08:46.113Z,4.5
2022-09-29T06:09:46.107Z,4.5
2022-09-29T06:11:46.109Z,4.5
2022-09-29T06:12:46.114Z,4.6
2022-09-29T06:13:46.144Z,4.6
2022-09-29T06:14:46.104Z,4.6
2022-09-29T06:15:46.108Z,4.6
2022-09-29T06:16:46.172Z,4.6
2022-09-29T06:17:46.116Z,4.6
2022-09-29T06:18:46.112Z,4.6
2022-09-29T06:19:46.110Z,4.7
2022-09-29T06:20:46.117Z,4.7
2022-09-29T06:21:46.116Z,4.8
2022-09-29T06:22:46.122Z,4.9
2022-09-29T06:23:46.110Z,5
2022-09-29T06:24:46.123Z,5.1
2022-09-29T06:25:46.113Z,5.2
2022-09-29T06:26:46.119Z,5.2
2022-09-29T06:27:46.121Z,5.3
2022-09-29T06:28:46.108Z,5.4
2022-09-29T06:29:46.111Z,5.4
2022-09-29T06:30:46.110Z,5.5
2022-09-29T06:32:46.117Z,5.7
2022-09-29T06:33:46.126Z,5.7
2022-09-29T06:34:46.112Z,5.8
2022-09-29T06:35:46.122Z,5.7
2022-09-29T06:36:46.116Z,5.7
2022-09-29T06:37:46.119Z,5.8
2022-09-29T06:38:46.131Z,5.8
2022-09-29T06:39:46.115Z,5.7
2022-09-29T06:40:46.197Z,5.7
2022-09-29T06:41:46.125Z,5.8
2022-09-29T06:42:46.118Z,5.8
2022-09-29T06:43:46.116Z,5.8
2022-09-29T06:44:46.141Z,5.8
2022-09-29T06:45:46.187Z,5.8
2022-09-29T06:46:46.125Z,5.9
2022-09-29T06:47:46.119Z,5.9
2022-09-29T06:48:46.120Z,6
2022-09-29T06:49:54.848Z,6
2022-09-29T06:50:46.466Z,6.1
2022-09-29T06:51:46.800Z,6.1
2022-09-29T06:53:46.120Z,6.2
2022-09-29T06:54:46.185Z,6.2
2022-09-29T06:55:46.116Z,6.3
2022-09-29T06:56:46.120Z,6.4
2022-09-29T06:57:46.116Z,6.4
2022-09-29T06:58:46.130Z,6.4
2022-09-29T06:59:46.125Z,6.5
2022-09-29T07:00:49.910Z,6.5
2022-09-29T07:01:46.128Z,6.6
2022-09-29T07:02:46.131Z,6.6
2022-09-29T07:04:46.125Z,6.7
2022-09-29T07:06:46.118Z,6.7
2022-09-29T07:07:49.964Z,6.8
2022-09-29T07:09:46.126Z,6.8
2022-09-29T07:10:46.125Z,6.9
2022-09-29T07:11:46.131Z,6.9
2022-09-29T07:12:46.123Z,7
2022-09-29T07:13:46.133Z,7
2022-09-29T07:14:46.197Z,7.1
2022-09-29T07:15:46.161Z,7.2
2022-09-29T07:16:46.175Z,7.2
2022-09-29T07:17:46.126Z,7.3
2022-09-29T07:18:46.139Z,7.3
2022-09-29T07:19:46.198Z,7.4
2022-09-29T07:20:46.127Z,7.5
2022-09-29T07:21:46.126Z,7.5
2022-09-29T07:22:46.131Z,7.6
2022-09-29T07:23:46.124Z,7.6
2022-09-29T07:25:52.142Z,7.8
2022-09-29T07:26:46.135Z,7.9
2022-09-29T07:27:46.127Z,7.9
2022-09-29T07:28:46.136Z,8
2022-09-29T07:30:46.135Z,8.1
2022-09-29T07:31:53.330Z,8.1
2022-09-29T07:32:58.748Z,8.2
2022-09-29T07:33:46.268Z,8.2
2022-09-29T07:34:46.133Z,8.3
2022-09-29T07:35:46.137Z,8.5
2022-09-29T07:36:46.142Z,8.7
2022-09-29T07:37:46.129Z,8.9
2022-09-29T07:38:46.158Z,9.2
2022-09-29T07:39:46.133Z,9.2
2022-09-29T07:40:46.252Z,9.3
2022-09-29T07:41:46.138Z,9.2
2022-09-29T07:42:46.134Z,9.2
2022-09-29T07:43:46.140Z,9.2
2022-09-29T07:46:46.162Z,9.1
2022-09-29T07:47:46.136Z,9.1
2022-09-29T07:48:46.138Z,9.1
2022-09-29T07:49:46.131Z,9.2
2022-09-29T07:50:46.138Z,9.2
2022-09-29T07:51:46.134Z,9.3
2022-09-29T07:52:46.142Z,9.3
2022-09-29T07:53:46.139Z,9.3
2022-09-29T07:54:46.923Z,9.4
2022-09-29T07:55:46.132Z,9.4
2022-09-29T07:56:46.139Z,9.5
2022-09-29T07:57:46.168Z,9.5
2022-09-29T07:58:46.149Z,9.6
2022-09-29T08:00:46.189Z,9.7
2022-09-29T08:01:46.140Z,9.7
2022-09-29T08:02:46.142Z,9.7
2022-09-29T08:03:46.137Z,9.7
2022-09-29T08:04:46.146Z,9.7
2022-09-29T08:05:46.145Z,9.8
2022-09-29T08:06:46.139Z,9.8
2022-09-29T08:07:46.140Z,9.9
2022-09-29T08:08:58.497Z,9.9
2022-09-29T08:09:46.142Z,10
2022-09-29T08:10:52.963Z,10.1
2022-09-29T08:11:46.246Z,10.1
2022-09-29T08:12:46.145Z,10.1
2022-09-29T08:13:46.149Z,10.2
2022-09-29T08:14:46.145Z,10.2
2022-09-29T08:15:46.143Z,10.3
2022-09-29T08:16:46.204Z,10.4
2022-09-29T08:17:46.170Z,10.4
2022-09-29T08:18:46.165Z,10.4
2022-09-29T08:19:46.146Z,10.4
2022-09-29T08:21:46.148Z,10.4
2022-09-29T08:22:46.153Z,10.4
2022-09-29T08:23:46.141Z,10.5
2022-09-29T08:24:46.193Z,10.5
2022-09-29T08:25:55.120Z,10.6
2022-09-29T08:26:46.154Z,10.7
2022-09-29T08:27:54.912Z,10.7
2022-09-29T08:28:46.859Z,10.8
2022-09-29T08:29:46.931Z,10.8
2022-09-29T08:30:46.147Z,10.8
2022-09-29T08:31:46.438Z,10.9
2022-09-29T08:32:46.153Z,11
2022-09-29T08:33:46.150Z,11
2022-09-29T08:34:46.148Z,11.1
2022-09-29T08:35:46.155Z,11.2
2022-09-29T08:36:46.150Z,11.2
2022-09-29T08:37:46.173Z,11.2
2022-09-29T08:38:46.149Z,11.3
2022-09-29T08:39:46.155Z,11.3
2022-09-29T08:40:46.248Z,11.4
2022-09-29T08:41:46.421Z,11.5
2022-09-29T08:42:49.066Z,11.5
2022-09-29T08:43:46.156Z,11.5
2022-09-29T08:44:46.785Z,11.6
2022-09-29T08:46:46.269Z,11.6
2022-09-29T08:47:47.862Z,11.7
2022-09-29T08:48:55.658Z,11.7
2022-09-29T08:49:46.162Z,11.7
2022-09-29T08:50:46.163Z,11.7
2022-09-29T08:51:46.159Z,11.8
2022-09-29T08:52:52.150Z,11.8
2022-09-29T08:53:57.449Z,11.9
2022-09-29T08:54:48.729Z,11.9
2022-09-29T08:55:46.158Z,12
2022-09-29T08:56:46.164Z,12
2022-09-29T08:57:46.154Z,12.1
2022-09-29T08:58:46.169Z,12.2
2022-09-29T08:59:46.162Z,12.3
2022-09-29T09:00:46.205Z,12.4
2022-09-29T09:01:46.166Z,12.4
2022-09-29T09:02:46.203Z,12.5
2022-09-29T09:03:46.164Z,12.6
2022-09-29T09:04:46.171Z,12.6
2022-09-29T09:05:46.164Z,12.7
2022-09-29T09:10:46.169Z,12.8
2022-09-29T09:11:46.169Z,12.8
2022-09-29T09:12:46.170Z,12.8
2022-09-29T09:13:46.174Z,12.8
2022-09-29T09:14:46.163Z,12.9
2022-09-29T09:15:46.169Z,12.9
2022-09-29T09:17:46.180Z,12.9
2022-09-29T09:19:56.494Z,13
2022-09-29T09:20:56.484Z,13
2022-09-29T09:21:46.172Z,13.1
2022-09-29T09:22:46.176Z,13.1
2022-09-29T09:23:46.173Z,13.1
2022-09-29T09:24:46.190Z,13.2
2022-09-29T09:25:46.180Z,13.2
2022-09-29T09:26:46.173Z,13.3
2022-09-29T09:27:46.171Z,13.4
2022-09-29T09:28:46.177Z,13.4
2022-09-29T09:29:46.173Z,13.4
2022-09-29T09:30:46.257Z,13.5
2022-09-29T09:31:46.192Z,13.6
2022-09-29T09:32:46.177Z,13.6
2022-09-29T09:33:56.296Z,13.5
2022-09-29T09:34:46.648Z,13.6
2022-09-29T09:35:56.231Z,13.5
2022-09-29T09:36:46.562Z,13.6
2022-09-29T09:37:46.177Z,13.7
2022-09-29T09:38:46.174Z,13.7
2022-09-29T09:39:46.186Z,13.8
2022-09-29T09:40:46.179Z,13.9
2022-09-29T09:41:46.189Z,14
2022-09-29T09:42:46.179Z,14.1
2022-09-29T09:43:46.173Z,14.2
2022-09-29T09:44:46.172Z,14.3
2022-09-29T09:45:46.259Z,14.4
2022-09-29T09:46:46.183Z,14.5
2022-09-29T09:47:46.190Z,14.5
2022-09-29T09:49:46.175Z,14.6
2022-09-29T09:50:46.203Z,14.5
2022-09-29T09:51:46.376Z,14.7
2022-09-29T09:52:46.180Z,14.9
2022-09-29T09:53:46.182Z,15.1
2022-09-29T09:54:46.190Z,15.3
2022-09-29T09:55:46.246Z,15.4
2022-09-29T09:56:46.183Z,15.6
2022-09-29T09:57:46.190Z,15.6
2022-09-29T09:58:46.185Z,15.7
2022-09-29T09:59:46.183Z,15.8
2022-09-29T10:00:46.186Z,15.8
2022-09-29T10:01:46.286Z,15.9
2022-09-29T10:02:46.247Z,15.9
2022-09-29T10:03:46.191Z,15.6
2022-09-29T10:04:46.188Z,15.8
2022-09-29T10:05:46.197Z,15.9
2022-09-29T10:06:46.179Z,16.1
2022-09-29T10:07:46.189Z,16.4
2022-09-29T10:08:46.191Z,16.6
2022-09-29T10:10:57.552Z,16.8
2022-09-29T10:11:46.192Z,16.6
2022-09-29T10:12:46.197Z,16.2
2022-09-29T10:13:46.196Z,15.9
2022-09-29T10:14:46.188Z,15.8
2022-09-29T10:15:46.200Z,15.7
2022-09-29T10:16:46.301Z,15.5
2022-09-29T10:17:46.194Z,15.4
2022-09-29T10:18:46.189Z,15
2022-09-29T10:19:46.201Z,14.9
2022-09-29T10:20:46.192Z,15.1
2022-09-29T10:21:46.220Z,15.4
2022-09-29T10:22:48.508Z,15.6
2022-09-29T10:23:46.189Z,16
2022-09-29T10:24:46.210Z,16
2022-09-29T10:25:46.211Z,16.3
2022-09-29T10:26:46.193Z,16.4
2022-09-29T10:27:46.199Z,16.6
2022-09-29T10:28:46.198Z,16.6
2022-09-29T10:29:46.195Z,16.8
2022-09-29T10:30:46.367Z,17
2022-09-29T10:31:46.200Z,17.2
2022-09-29T10:32:46.199Z,17.2
2022-09-29T10:33:46.197Z,17.2
2022-09-29T10:34:46.202Z,17.3
2022-09-29T10:35:46.207Z,17.4
2022-09-29T10:36:46.204Z,17.4
2022-09-29T10:37:46.206Z,17.4
2022-09-29T10:38:46.204Z,17.3
2022-09-29T10:39:46.201Z,17.4
2022-09-29T10:40:46.222Z,17.5
2022-09-29T10:41:46.205Z,17.6
2022-09-29T10:42:46.201Z,17.5
2022-09-29T10:43:46.206Z,17.5
2022-09-29T10:44:46.206Z,17.4
2022-09-29T10:45:46.245Z,17.4
2022-09-29T10:46:46.205Z,17.5
2022-09-29T10:47:46.214Z,17.5
2022-09-29T10:48:46.202Z,17.3
2022-09-29T10:49:46.210Z,17
2022-09-29T10:50:46.210Z,16.8
2022-09-29T10:51:46.208Z,16.5
2022-09-29T10:52:46.237Z,16.3
2022-09-29T10:53:46.205Z,16.2
2022-09-29T10:54:46.216Z,16
2022-09-29T10:55:46.250Z,15.9
2022-09-29T10:56:46.235Z,16
2022-09-29T10:57:46.211Z,16.1
2022-09-29T10:58:59.017Z,16.4
2022-09-29T10:59:46.211Z,16.5
2022-09-29T11:00:46.219Z,16.7
2022-09-29T11:01:46.208Z,16.9
2022-09-29T11:02:46.300Z,17.2
2022-09-29T11:03:46.210Z,17.2
2022-09-29T11:04:46.214Z,17.4
2022-09-29T11:05:46.221Z,17.6
2022-09-29T11:06:46.241Z,17.6
2022-09-29T11:07:46.222Z,17.7
2022-09-29T11:08:46.218Z,17.8
2022-09-29T11:10:46.214Z,17.8
2022-09-29T11:11:46.216Z,17.9
2022-09-29T11:12:46.217Z,18
2022-09-29T11:13:46.218Z,18
2022-09-29T11:14:46.222Z,18
2022-09-29T11:15:46.226Z,18
2022-09-29T11:17:46.226Z,18
2022-09-29T11:18:46.219Z,17.9
2022-09-29T11:19:46.222Z,17.9
2022-09-29T11:20:46.221Z,17.9
2022-09-29T11:21:46.227Z,18.1
2022-09-29T11:22:46.229Z,18.1
2022-09-29T11:23:46.278Z,18.2
2022-09-29T11:24:46.226Z,18.2
2022-09-29T11:25:46.227Z,18.1
2022-09-29T11:26:46.222Z,18.1
2022-09-29T11:27:46.226Z,18.2
2022-09-29T11:28:46.234Z,18.3
2022-09-29T11:29:46.223Z,18.4
2022-09-29T11:31:46.225Z,18.7
2022-09-29T11:32:46.264Z,18.7
2022-09-29T11:33:46.228Z,18.7
2022-09-29T11:34:46.236Z,18.5
2022-09-29T11:35:46.232Z,18.4
2022-09-29T11:36:46.230Z,18.4
2022-09-29T11:37:46.243Z,18.4
2022-09-29T11:38:46.230Z,18.4
2022-09-29T11:39:46.234Z,18.4
2022-09-29T11:40:46.234Z,18.4
2022-09-29T11:41:46.237Z,18.4
2022-09-29T11:42:46.254Z,18.2
2022-09-29T11:43:46.239Z,18.1
2022-09-29T11:44:46.240Z,17.9
2022-09-29T11:45:46.334Z,17.9
2022-09-29T11:46:46.250Z,17.9
2022-09-29T11:47:46.235Z,18
2022-09-29T11:48:46.238Z,18.2
2022-09-29T11:49:46.246Z,18.4
2022-09-29T11:50:46.239Z,18.5
2022-09-29T11:52:46.240Z,18.7
2022-09-29T11:53:46.242Z,18.7
2022-09-29T11:54:46.388Z,18.8
2022-09-29T11:55:46.244Z,18.8
2022-09-29T11:57:46.247Z,18.6
2022-09-29T11:58:46.269Z,18.7
2022-09-29T11:59:46.250Z,18.8
2022-09-29T12:00:46.248Z,19
2022-09-29T12:01:46.247Z,19
2022-09-29T12:02:46.386Z,19.1
2022-09-29T12:03:46.244Z,19
2022-09-29T12:04:46.244Z,18.8
2022-09-29T12:05:46.254Z,18.8
2022-09-29T12:06:46.244Z,18.9
2022-09-29T12:07:46.250Z,18.9
2022-09-29T12:08:46.248Z,18.8
2022-09-29T12:09:46.248Z,18.6
2022-09-29T12:10:46.254Z,18.5
2022-09-29T12:12:11.361Z,18.4
2022-09-29T12:12:46.304Z,18.3
2022-09-29T12:13:46.255Z,18.2
2022-09-29T12:14:46.246Z,17.9
2022-09-29T12:15:46.254Z,17.8
2022-09-29T12:16:46.297Z,17.9
2022-09-29T12:18:46.257Z,18.1
2022-09-29T12:19:46.253Z,18.3
2022-09-29T12:20:46.262Z,18.5
2022-09-29T12:21:46.254Z,18.6
2022-09-29T12:22:46.270Z,18.8
2022-09-29T12:24:46.266Z,18.9
2022-09-29T12:25:46.316Z,18.9
2022-09-29T12:26:46.263Z,19
2022-09-29T12:27:46.264Z,18.9
2022-09-29T12:28:46.265Z,18.8
2022-09-29T12:29:46.260Z,18.8
2022-09-29T12:30:46.344Z,18.9
2022-09-29T12:31:46.269Z,18.9
2022-09-29T12:32:46.258Z,19
2022-09-29T12:34:46.257Z,19.1
2022-09-29T12:35:46.266Z,19.2
2022-09-29T12:36:46.294Z,19.1
2022-09-29T12:38:46.263Z,19.2
2022-09-29T12:39:46.275Z,19.1
2022-09-29T12:40:46.265Z,19.2
2022-09-29T12:41:46.267Z,19.2
2022-09-29T12:42:46.265Z,19.3
2022-09-29T12:43:46.268Z,19.4
2022-09-29T12:45:46.438Z,19.2
2022-09-29T12:46:46.275Z,19.2
2022-09-29T12:47:46.273Z,19.2
2022-09-29T12:48:46.268Z,19.1
2022-09-29T12:49:46.269Z,19.1
2022-09-29T12:50:46.271Z,19.2
2022-09-29T12:51:46.270Z,19.2
2022-09-29T12:52:46.263Z,19
2022-09-29T12:53:46.268Z,18.9
2022-09-29T12:55:46.267Z,18.7
2022-09-29T12:56:46.303Z,18.7
2022-09-29T12:57:46.277Z,18.5
2022-09-29T12:58:46.272Z,18.5
2022-09-29T12:59:46.265Z,18.5
2022-09-29T13:00:46.280Z,18.4
2022-09-29T13:01:46.338Z,18.4
2022-09-29T13:02:46.330Z,18.3
2022-09-29T13:03:46.277Z,18.3
2022-09-29T13:04:46.280Z,18.4
2022-09-29T13:06:46.279Z,18.5
2022-09-29T13:07:46.278Z,18.7
2022-09-29T13:08:46.280Z,18.8
2022-09-29T13:09:46.280Z,18.8
2022-09-29T13:10:46.281Z,18.9
2022-09-29T13:11:46.284Z,19
2022-09-29T13:12:46.279Z,19
2022-09-29T13:13:46.275Z,19.1
2022-09-29T13:14:46.282Z,19.3
2022-09-29T13:15:46.572Z,19.2
2022-09-29T13:17:49.075Z,19.4
2022-09-29T13:18:54.271Z,19.4
2022-09-29T13:20:46.286Z,19.4
2022-09-29T13:21:46.291Z,19.4
2022-09-29T13:22:46.302Z,19.3
2022-09-29T13:23:46.291Z,19.2
2022-09-29T13:25:46.296Z,19.2
2022-09-29T13:26:46.291Z,19.3
2022-09-29T13:27:46.338Z,19.3
2022-09-29T13:28:46.303Z,19.4
2022-09-29T13:29:46.315Z,19.3
2022-09-29T13:30:46.363Z,19.2
2022-09-29T13:31:46.303Z,19.3
2022-09-29T13:32:46.291Z,19.4
2022-09-29T13:33:46.302Z,19.5
2022-09-29T13:34:46.307Z,19.5
2022-09-29T13:35:46.294Z,19.5
2022-09-29T13:36:46.291Z,19.6
2022-09-29T13:37:46.292Z,19.7
2022-09-29T13:38:46.292Z,19.8
2022-09-29T13:39:46.296Z,19.8
2022-09-29T13:42:46.301Z,19.7
2022-09-29T13:43:46.303Z,19.7
2022-09-29T13:46:46.299Z,19.7
2022-09-29T13:47:46.305Z,19.7
2022-09-29T13:48:46.306Z,19.4
2022-09-29T13:49:46.304Z,19.1
2022-09-29T13:50:46.306Z,18.8
2022-09-29T13:52:46.303Z,18.3
2022-09-29T13:53:46.309Z,18.2
2022-09-29T13:54:46.337Z,18
2022-09-29T13:55:46.309Z,17.8
2022-09-29T13:56:46.306Z,17.8
2022-09-29T13:57:46.307Z,17.7
2022-09-29T13:59:46.311Z,17.4
2022-09-29T14:00:46.311Z,17.2
2022-09-29T14:01:46.428Z,17.2
2022-09-29T14:02:46.378Z,17
2022-09-29T14:03:46.348Z,16.9
2022-09-29T14:04:46.335Z,16.8
2022-09-29T14:05:46.312Z,16.8
2022-09-29T14:06:46.311Z,16.8
2022-09-29T14:07:46.313Z,16.9
2022-09-29T14:08:46.323Z,17
2022-09-29T14:09:46.431Z,17.1
2022-09-29T14:10:46.316Z,17.3
2022-09-29T14:11:46.321Z,17.4
2022-09-29T14:12:49.115Z,17.5
2022-09-29T14:13:46.368Z,17.6
2022-09-29T14:14:46.315Z,17.7
2022-09-29T14:15:46.407Z,17.8
2022-09-29T14:16:46.322Z,17.9
2022-09-29T14:17:46.324Z,17.9
2022-09-29T14:18:46.322Z,18
2022-09-29T14:19:46.315Z,18
2022-09-29T14:20:46.308Z,18
2022-09-29T14:21:46.321Z,18
2022-09-29T14:22:46.330Z,18.1
2022-09-29T14:23:46.448Z,18
2022-09-29T14:24:46.331Z,18
2022-09-29T14:25:46.319Z,18.1
2022-09-29T14:26:46.330Z,18.1
2022-09-29T14:27:46.339Z,18.2
2022-09-29T14:29:46.367Z,18.1
2022-09-29T14:30:46.427Z,18.1
2022-09-29T14:32:57.651Z,18
2022-09-29T14:34:56.632Z,17.8
2022-09-29T14:35:56.631Z,17.7
2022-09-29T14:36:46.368Z,17.7
2022-09-29T14:40:00.115Z,17.6
2022-09-29T14:41:56.649Z,17.6
2022-09-29T14:42:46.329Z,17.5
2022-09-29T14:43:46.329Z,17.6
2022-09-29T14:44:46.327Z,17.6
2022-09-29T14:45:46.412Z,17.6
2022-09-29T14:46:46.348Z,17.6
2022-09-29T14:47:46.357Z,17.6
2022-09-29T14:48:46.333Z,17.6
2022-09-29T14:49:46.329Z,17.6
2022-09-29T14:50:46.332Z,17.6
2022-09-29T14:52:46.339Z,17.5
2022-09-29T14:53:46.371Z,17.4
2022-09-29T14:54:46.338Z,17.2
2022-09-29T14:55:46.336Z,17.1
2022-09-29T14:56:46.335Z,16.9
2022-09-29T14:57:46.331Z,16.9
2022-09-29T14:58:46.336Z,16.9
2022-09-29T14:59:46.339Z,16.9
2022-09-29T15:00:46.356Z,16.8
2022-09-29T15:01:46.335Z,16.8
2022-09-29T15:02:46.497Z,16.8
2022-09-29T15:03:46.476Z,16.8
2022-09-29T15:04:46.366Z,16.9
2022-09-29T15:06:46.342Z,16.9
2022-09-29T15:07:46.340Z,16.9
2022-09-29T15:08:46.363Z,16.9
2022-09-29T15:09:46.441Z,16.8
2022-09-29T15:10:46.338Z,16.7
2022-09-29T15:11:46.370Z,16.7
2022-09-29T15:12:46.338Z,16.7
2022-09-29T15:13:46.340Z,16.7
2022-09-29T15:14:46.347Z,16.7
2022-09-29T15:15:46.401Z,16.6
2022-09-29T15:16:46.341Z,16.6
2022-09-29T15:17:46.351Z,16.6
2022-09-29T15:18:46.342Z,16.5
2022-09-29T15:19:46.349Z,16.4